Skip Navigation LinksHome page > Weather > Current weather Skip Navigation Links

Current Weather

Ben-Gurion Intl Apt, Tel Aviv, Israel

For information only: do not use for flight planning or navigation.
Latest weather
Observation time Friday, April 25, 2014 5:20 AM IDT
Local time Friday, April 25, 2014 5:31 AM IDT
Flight conditions Visual Meteorological Conditions
Winds
Wind direction South-Southeast (150°)
Wind speed 6 mph
Visibility 6.2 mi.
Sky condition
Ceiling unlimited
Sky clear
Temperature 70°F
Dewpoint 63°F
Altimeter 29.71 in.Hg
Derived measurements
Relative humidity 78%
Density altitude 1211 ft.
Remarks
Ceiling and visibility OK.
No significant changes expected in the next two hours.
METAR LLBG 250220Z 15005KT CAVOK 21/17 Q1006 NOSIG RMK OBS 600FT-TEMP 33C

Settings

Location code

InnerDrive.Weather 4.0.4869.0 Release CLR 4.0.30319.18449
Copyright ©2013 Inner Drive Technology. All rights reserved. Portions Copyright ©1986-2013 David Braverman.

Find weather

Site navigation


Skip Navigation Links

Place info

Page info

PayPal - The safer, easier way to pay online!

Return home.

Copyright ©2014 Inner Drive Technology. Purveyors of fine, hand-crafted computer software. Page printed 2014-04-25T02:31:42 UTC.